createdAt,value
2018-06-01T00:00:20.498Z,1.30
2018-06-01T00:02:47.925Z,1.57
2018-06-01T00:05:16.135Z,1.90
2018-06-01T00:07:43.574Z,1.10
2018-06-01T00:10:11.035Z,1.30
2018-06-01T00:12:39.244Z,1.40
2018-06-01T00:15:06.790Z,1.27
2018-06-01T00:17:34.240Z,1.10
2018-06-01T00:20:01.673Z,1.00
2018-06-01T00:22:29.127Z,1.33
2018-06-01T00:24:56.623Z,1.10
2018-06-01T00:27:24.080Z,1.10
2018-06-01T00:29:51.510Z,0.93
2018-06-01T00:32:18.984Z,1.15
2018-06-01T00:34:46.411Z,1.03
2018-06-01T00:37:13.863Z,1.00
2018-06-01T00:39:42.083Z,1.00
2018-06-01T00:42:09.542Z,1.02
2018-06-01T00:44:36.986Z,1.23
2018-06-01T00:47:04.430Z,1.30
2018-06-01T00:49:31.886Z,1.27
2018-06-01T00:51:59.675Z,1.30
2018-06-01T00:54:27.130Z,1.20
2018-06-01T00:56:54.584Z,1.30
2018-06-01T00:59:22.039Z,1.53
2018-06-01T01:01:49.486Z,1.37
2018-06-01T01:04:16.936Z,1.20
2018-06-01T01:06:44.366Z,1.30
2018-06-01T01:09:12.568Z,1.33
2018-06-01T01:11:40.024Z,1.60
2018-06-01T01:14:07.467Z,1.30
2018-06-01T01:16:34.922Z,1.50
2018-06-01T01:19:03.135Z,1.60
2018-06-01T01:21:31.363Z,1.50
2018-06-01T01:24:06.158Z,1.40
2018-06-01T01:26:33.615Z,1.27
2018-06-01T01:29:01.089Z,1.60
2018-06-01T01:31:28.511Z,1.73
2018-06-01T01:33:55.948Z,1.80
2018-06-01T01:36:23.396Z,1.80
2018-06-01T01:38:50.855Z,2.10
2018-06-01T01:41:18.283Z,1.97
2018-06-01T01:43:46.518Z,1.90
2018-06-01T01:46:13.966Z,1.87
2018-06-01T01:48:41.422Z,1.90
2018-06-01T01:51:08.847Z,1.70
2018-06-01T01:53:36.320Z,2.20
2018-06-01T01:56:03.795Z,1.80
2018-06-01T01:58:31.224Z,1.90
2018-06-01T02:00:58.678Z,1.83
2018-06-01T02:03:26.907Z,1.90
2018-06-01T02:05:54.357Z,1.70
2018-06-01T02:08:21.799Z,1.50
2018-06-01T02:10:49.252Z,1.52
2018-06-01T02:13:16.704Z,1.70
2018-06-01T02:15:44.151Z,1.70
2018-06-01T02:18:11.586Z,1.20
2018-06-01T02:20:39.811Z,1.70
2018-06-01T02:23:07.256Z,1.50
2018-06-01T02:25:34.704Z,1.60
2018-06-01T02:28:02.146Z,1.37
2018-06-01T02:30:29.588Z,1.47
2018-06-01T02:32:57.816Z,1.50
2018-06-01T02:35:25.271Z,1.40
2018-06-01T02:37:52.704Z,1.43
2018-06-01T02:40:20.148Z,1.50
2018-06-01T02:42:47.595Z,1.50
2018-06-01T02:45:15.819Z,1.43
2018-06-01T02:47:43.255Z,1.60
2018-06-01T02:50:10.695Z,1.80
2018-06-01T02:52:38.463Z,1.77
2018-06-01T02:55:05.912Z,1.63
2018-06-01T02:57:33.365Z,1.40
2018-06-01T03:00:01.618Z,1.57
2018-06-01T03:02:29.066Z,1.50
2018-06-01T03:04:56.520Z,1.87
2018-06-01T03:07:23.955Z,1.70
2018-06-01T03:09:51.425Z,1.90
2018-06-01T03:12:18.856Z,1.90
2018-06-01T03:14:46.314Z,2.10
2018-06-01T03:17:13.764Z,1.90
2018-06-01T03:19:41.219Z,2.07
2018-06-01T03:22:08.656Z,2.30
2018-06-01T03:24:36.867Z,1.60
2018-06-01T03:27:04.531Z,1.90
2018-06-01T03:29:31.983Z,1.73
2018-06-01T03:31:59.440Z,1.80
2018-06-01T03:34:26.876Z,1.77
2018-06-01T03:36:54.336Z,1.83
2018-06-01T03:39:21.818Z,1.97
2018-06-01T03:41:49.266Z,2.07
2018-06-01T03:44:16.718Z,1.93
2018-06-01T03:46:44.157Z,2.00
2018-06-01T03:49:12.365Z,2.10
2018-06-01T03:51:39.841Z,2.20
2018-06-01T03:54:07.306Z,2.40
2018-06-01T03:56:34.738Z,2.10
2018-06-01T03:59:02.212Z,2.27
2018-06-01T04:01:30.604Z,2.67
2018-06-01T04:03:58.845Z,2.77
2018-06-01T04:06:26.281Z,2.43
2018-06-01T04:08:53.738Z,2.33
2018-06-01T04:11:21.180Z,2.57
2018-06-01T04:13:49.402Z,2.90
2018-06-01T04:16:16.866Z,2.47
2018-06-01T04:18:44.320Z,2.63
2018-06-01T04:21:11.756Z,2.53
2018-06-01T04:23:40.354Z,2.80
2018-06-01T04:26:07.804Z,2.90
2018-06-01T04:28:35.253Z,3.77
2018-06-01T04:31:02.738Z,2.87
2018-06-01T04:33:30.274Z,2.97
2018-06-01T04:35:57.715Z,3.03
2018-06-01T04:38:25.148Z,3.20
2018-06-01T04:40:53.363Z,3.37
2018-06-01T04:43:20.798Z,3.40
2018-06-01T04:45:48.440Z,3.27
2018-06-01T04:48:16.674Z,3.70
2018-06-01T04:50:44.114Z,3.40
2018-06-01T04:53:11.571Z,3.33
2018-06-01T04:55:39.011Z,3.70
2018-06-01T04:58:06.447Z,4.03
2018-06-01T05:00:34.784Z,3.20
2018-06-01T05:03:02.234Z,3.43
2018-06-01T05:05:30.431Z,4.20
2018-06-01T05:07:57.970Z,3.70
2018-06-01T05:10:25.448Z,4.50
2018-06-01T05:12:52.899Z,4.30
2018-06-01T05:15:20.352Z,3.80
2018-06-01T05:17:47.808Z,4.20
2018-06-01T05:20:15.271Z,4.22
2018-06-01T05:22:42.714Z,4.80
2018-06-01T05:25:10.166Z,4.40
2018-06-01T05:27:37.604Z,4.60
2018-06-01T05:30:05.067Z,4.00
2018-06-01T05:32:32.506Z,3.77
2018-06-01T05:34:59.971Z,4.70
2018-06-01T05:37:27.405Z,4.57
2018-06-01T05:39:55.626Z,4.30
2018-06-01T05:42:23.061Z,4.95
2018-06-01T05:44:50.500Z,4.30
2018-06-01T05:47:18.732Z,4.23
2018-06-01T05:49:46.178Z,4.70
2018-06-01T05:52:13.624Z,4.60
2018-06-01T05:54:41.068Z,4.53
2018-06-01T05:57:08.545Z,4.07
2018-06-01T05:59:35.989Z,4.67
2018-06-01T06:02:03.419Z,4.77
2018-06-01T06:04:31.672Z,4.77
2018-06-01T06:06:59.124Z,5.00
2018-06-01T06:09:26.568Z,4.70
2018-06-01T06:11:54.019Z,4.70
2018-06-01T06:14:21.469Z,4.50
2018-06-01T06:16:48.926Z,5.15
2018-06-01T06:19:16.364Z,4.40
2018-06-01T06:21:43.824Z,5.20
2018-06-01T06:24:12.039Z,5.17
2018-06-01T06:26:40.239Z,4.55
2018-06-01T06:29:08.464Z,4.97
2018-06-01T06:31:35.892Z,4.80
2018-06-01T06:34:03.337Z,3.73
2018-06-01T06:36:30.780Z,4.67
2018-06-01T06:38:59.009Z,4.13
2018-06-01T06:41:26.431Z,4.00
2018-06-01T06:43:53.883Z,4.57
2018-06-01T06:46:22.108Z,4.23
2018-06-01T06:48:49.563Z,5.10
2018-06-01T06:51:17.020Z,4.00
2018-06-01T06:53:44.461Z,4.40
2018-06-01T06:56:11.899Z,3.97
2018-06-01T06:58:39.361Z,4.13
2018-06-01T07:01:06.809Z,4.20
2018-06-01T07:03:34.274Z,4.00
2018-06-01T07:06:01.726Z,4.00
2018-06-01T07:08:29.185Z,4.23
2018-06-01T07:10:56.646Z,4.10
2018-06-01T07:13:24.127Z,4.60
2018-06-01T07:15:51.603Z,4.53
2018-06-01T07:18:19.043Z,4.17
2018-06-01T07:20:46.517Z,4.55
2018-06-01T07:23:13.959Z,4.45
2018-06-01T07:25:41.428Z,4.13
2018-06-01T07:28:08.979Z,4.40
2018-06-01T07:30:36.411Z,4.33
2018-06-01T07:33:04.571Z,4.43
2018-06-01T07:35:32.041Z,4.43
2018-06-01T07:37:59.478Z,4.25
2018-06-01T07:40:27.733Z,4.67
2018-06-01T07:42:55.171Z,4.20
2018-06-01T07:45:22.638Z,4.60
2018-06-01T07:47:50.857Z,4.20
2018-06-01T07:50:19.084Z,3.80
2018-06-01T07:52:46.549Z,4.10
2018-06-01T07:55:14.430Z,4.00
2018-06-01T07:57:41.879Z,3.83
2018-06-01T08:00:09.325Z,4.00
2018-06-01T08:02:36.784Z,5.10
2018-06-01T08:05:04.218Z,4.47
2018-06-01T08:07:31.665Z,4.50
2018-06-01T08:09:59.114Z,4.17
2018-06-01T08:12:26.584Z,4.17
2018-06-01T08:14:54.024Z,4.03
2018-06-01T08:17:22.259Z,4.30
2018-06-01T08:19:50.488Z,4.03
2018-06-01T08:22:17.951Z,3.70
2018-06-01T08:24:45.391Z,4.00
2018-06-01T08:27:12.845Z,4.10
2018-06-01T08:29:40.324Z,4.53
2018-06-01T08:32:07.801Z,3.63
2018-06-01T08:34:35.272Z,4.47
2018-06-01T08:37:02.799Z,3.73
2018-06-01T08:39:30.391Z,4.20
2018-06-01T08:41:57.804Z,3.27
2018-06-01T08:44:25.237Z,3.37
2018-06-01T08:46:52.670Z,3.40
2018-06-01T08:49:20.895Z,3.73
2018-06-01T08:51:48.347Z,3.27
2018-06-01T08:54:15.791Z,4.10
2018-06-01T08:56:43.263Z,3.60
2018-06-01T08:59:10.789Z,3.10
2018-06-01T09:01:38.165Z,3.83
2018-06-01T09:04:05.629Z,3.53
2018-06-01T09:06:33.107Z,3.33
2018-06-01T09:09:00.552Z,3.83
2018-06-01T09:11:28.007Z,3.83
2018-06-01T09:13:55.451Z,3.63
2018-06-01T09:16:22.906Z,4.00
2018-06-01T09:18:50.348Z,3.90
2018-06-01T09:21:17.790Z,4.30
2018-06-01T09:23:45.228Z,4.47
2018-06-01T09:26:13.452Z,4.12
2018-06-01T09:28:40.906Z,3.83
2018-06-01T09:31:09.119Z,4.23
2018-06-01T09:33:36.571Z,4.23
2018-06-01T09:36:04.028Z,4.63
2018-06-01T09:38:31.478Z,4.20
2018-06-01T09:40:59.843Z,4.47
2018-06-01T09:43:27.295Z,4.30
2018-06-01T09:45:54.751Z,4.00
2018-06-01T09:48:22.984Z,4.12
2018-06-01T09:50:50.457Z,4.23
2018-06-01T09:53:18.664Z,4.30
2018-06-01T09:55:46.116Z,4.20
2018-06-01T09:58:13.590Z,4.20
2018-06-01T10:00:46.783Z,4.03
2018-06-01T10:03:14.243Z,3.80
2018-06-01T10:05:41.701Z,3.90
2018-06-01T10:08:09.134Z,3.87
2018-06-01T10:10:36.599Z,3.60
2018-06-01T10:13:04.046Z,4.30
2018-06-01T10:15:31.528Z,3.67
2018-06-01T10:17:58.951Z,4.00
2018-06-01T10:20:26.675Z,4.05
2018-06-01T10:22:54.112Z,3.80
2018-06-01T10:25:21.564Z,4.03
2018-06-01T10:27:49.022Z,3.33
2018-06-01T10:30:16.471Z,3.93
2018-06-01T10:32:43.912Z,3.97
2018-06-01T10:35:11.367Z,3.60
2018-06-01T10:37:38.799Z,3.67
2018-06-01T10:40:07.035Z,3.50
2018-06-01T10:42:34.493Z,3.60
2018-06-01T10:45:01.954Z,3.27
2018-06-01T10:47:29.413Z,3.10
2018-06-01T10:49:56.891Z,3.37
2018-06-01T10:52:24.322Z,3.50
2018-06-01T10:54:51.797Z,2.95
2018-06-01T10:57:19.334Z,3.67
2018-06-01T10:59:46.819Z,3.73
2018-06-01T11:02:14.264Z,3.50
2018-06-01T11:04:41.711Z,3.40
2018-06-01T11:07:09.171Z,3.23
2018-06-01T11:09:36.618Z,3.50
2018-06-01T11:12:04.063Z,2.87
2018-06-01T11:14:31.521Z,3.20
2018-06-01T11:16:58.982Z,3.17
2018-06-01T11:19:26.449Z,2.80
2018-06-01T11:21:53.911Z,2.93
2018-06-01T11:24:21.354Z,3.00
2018-06-01T11:26:48.808Z,2.83
2018-06-01T11:29:16.244Z,2.93
2018-06-01T11:31:43.739Z,3.40
2018-06-01T11:34:11.423Z,3.00
2018-06-01T11:36:38.867Z,2.60
2018-06-01T11:39:07.114Z,2.50
2018-06-01T11:41:34.568Z,2.60
2018-06-01T11:44:01.995Z,2.20
2018-06-01T11:46:30.222Z,2.53
2018-06-01T11:48:57.676Z,2.40
2018-06-01T11:51:25.179Z,2.70
2018-06-01T11:53:52.606Z,2.70
2018-06-01T11:56:20.079Z,2.67
2018-06-01T11:58:47.542Z,2.80
2018-06-01T12:01:15.768Z,2.80
2018-06-01T12:03:43.208Z,2.50
2018-06-01T12:06:10.678Z,2.90
2018-06-01T12:08:38.113Z,2.30
2018-06-01T12:11:05.637Z,2.60
2018-06-01T12:13:33.044Z,2.40
2018-06-01T12:16:00.484Z,2.80
2018-06-01T12:18:28.691Z,2.50
2018-06-01T12:20:56.168Z,2.97
2018-06-01T12:23:23.619Z,2.90
2018-06-01T12:25:51.051Z,2.10
2018-06-01T12:28:18.488Z,2.90
2018-06-01T12:30:45.947Z,2.70
2018-06-01T12:33:13.399Z,2.60
2018-06-01T12:35:40.878Z,2.40
2018-06-01T12:38:08.311Z,2.33
2018-06-01T12:40:36.536Z,2.77
2018-06-01T12:43:03.983Z,2.27
2018-06-01T12:45:31.445Z,2.87
2018-06-01T12:47:58.894Z,2.60
2018-06-01T12:50:26.339Z,2.20
2018-06-01T12:52:53.804Z,2.30
2018-06-01T12:55:21.259Z,2.73
2018-06-01T12:57:48.723Z,2.60
2018-06-01T13:00:16.200Z,2.93
2018-06-01T13:02:43.669Z,3.07
2018-06-01T13:05:11.120Z,3.53
2018-06-01T13:07:38.659Z,2.70
2018-06-01T13:10:06.108Z,2.70
2018-06-01T13:12:34.365Z,2.60
2018-06-01T13:15:01.835Z,2.40
2018-06-01T13:17:29.266Z,2.30
2018-06-01T13:19:57.481Z,2.60
2018-06-01T13:22:24.923Z,2.40
2018-06-01T13:24:52.392Z,2.53
2018-06-01T13:27:19.859Z,2.50
2018-06-01T13:29:47.310Z,2.77
2018-06-01T13:32:14.788Z,2.90
2018-06-01T13:34:42.216Z,2.63
2018-06-01T13:37:09.687Z,2.63
2018-06-01T13:39:37.127Z,2.53
2018-06-01T13:42:04.588Z,2.50
2018-06-01T13:44:32.026Z,2.60
2018-06-01T13:46:59.485Z,2.60
2018-06-01T13:49:26.964Z,2.40
2018-06-01T13:51:54.401Z,2.50
2018-06-01T13:54:21.890Z,2.47
2018-06-01T13:56:49.324Z,2.50
2018-06-01T13:59:16.757Z,2.13
2018-06-01T14:01:45.019Z,2.60
2018-06-01T14:04:13.229Z,2.17
2018-06-01T14:06:40.688Z,2.80
2018-06-01T14:09:08.150Z,2.70
2018-06-01T14:11:35.591Z,2.50
2018-06-01T14:14:03.048Z,2.37
2018-06-01T14:16:30.501Z,2.40
2018-06-01T14:18:57.943Z,2.93
2018-06-01T14:21:26.184Z,2.60
2018-06-01T14:23:53.641Z,3.00
2018-06-01T14:26:21.094Z,2.90
2018-06-01T14:28:48.560Z,3.37
2018-06-01T14:31:16.017Z,3.57
2018-06-01T14:33:43.444Z,3.03
2018-06-01T14:36:10.895Z,3.50
2018-06-01T14:38:44.365Z,3.40
2018-06-01T14:41:12.598Z,3.33
2018-06-01T14:43:40.071Z,3.67
2018-06-01T14:46:07.523Z,3.07
2018-06-01T14:48:36.472Z,3.20
2018-06-01T14:51:03.924Z,3.33
2018-06-01T14:53:31.355Z,3.00
2018-06-01T14:55:59.592Z,3.60
2018-06-01T14:58:27.047Z,3.30
2018-06-01T15:00:54.495Z,2.97
2018-06-01T15:03:21.961Z,3.00
2018-06-01T15:05:49.410Z,2.80
2018-06-01T15:08:16.893Z,3.80
2018-06-01T15:10:44.307Z,3.15
2018-06-01T15:13:11.785Z,3.90
2018-06-01T15:15:39.243Z,3.30
2018-06-01T15:18:06.680Z,4.07
2018-06-01T15:20:34.133Z,3.00
2018-06-01T15:23:01.624Z,3.70
2018-06-01T15:25:29.070Z,3.67
2018-06-01T15:28:03.927Z,3.80
2018-06-01T15:30:31.392Z,3.90
2018-06-01T15:32:58.831Z,3.70
2018-06-01T15:35:26.291Z,3.67
2018-06-01T15:37:53.727Z,3.60
2018-06-01T15:40:21.175Z,3.77
2018-06-01T15:42:48.635Z,3.70
2018-06-01T15:45:16.112Z,3.40
2018-06-01T15:47:43.559Z,3.20
2018-06-01T15:50:10.996Z,3.03
2018-06-01T15:52:38.456Z,3.70
2018-06-01T15:55:05.887Z,3.17
2018-06-01T15:57:34.123Z,2.73
2018-06-01T16:00:01.581Z,3.10
2018-06-01T16:02:29.023Z,6.10
2018-06-01T16:04:56.504Z,2.90
2018-06-01T16:07:23.947Z,3.13
2018-06-01T16:09:51.405Z,2.77
2018-06-01T16:12:18.855Z,2.80
2018-06-01T16:14:46.283Z,3.10
2018-06-01T16:17:13.736Z,3.05
2018-06-01T16:19:41.184Z,3.53
2018-06-01T16:22:08.649Z,3.03
2018-06-01T16:24:36.092Z,2.83
2018-06-01T16:27:04.308Z,3.20
2018-06-01T16:29:31.780Z,2.70
2018-06-01T16:31:59.236Z,3.20
2018-06-01T16:34:26.691Z,2.90
2018-06-01T16:36:54.124Z,2.97
2018-06-01T16:39:21.587Z,3.30
2018-06-01T16:41:49.043Z,2.43
2018-06-01T16:44:17.259Z,2.80
2018-06-01T16:46:44.702Z,2.87
2018-06-01T16:49:12.146Z,3.20
2018-06-01T16:51:39.604Z,3.30
2018-06-01T16:54:07.059Z,3.03
2018-06-01T16:56:34.502Z,3.40
2018-06-01T16:59:01.943Z,2.87
2018-06-01T17:01:29.464Z,4.40
2018-06-01T17:03:56.938Z,2.83
2018-06-01T17:06:25.144Z,3.80
2018-06-01T17:08:52.599Z,3.47
2018-06-01T17:11:20.040Z,2.90
2018-06-01T17:13:47.503Z,2.70
2018-06-01T17:16:14.951Z,3.47
2018-06-01T17:18:42.404Z,3.62
2018-06-01T17:21:10.603Z,2.53
2018-06-01T17:23:38.067Z,3.63
2018-06-01T17:26:06.429Z,2.63
2018-06-01T17:28:33.926Z,3.07
2018-06-01T17:31:01.377Z,3.53
2018-06-01T17:33:28.885Z,3.40
2018-06-01T17:35:57.111Z,2.80
2018-06-01T17:38:24.551Z,2.70
2018-06-01T17:40:52.019Z,2.80
2018-06-01T17:43:19.462Z,3.10
2018-06-01T17:45:46.891Z,3.25
2018-06-01T17:48:14.339Z,3.57
2018-06-01T17:50:42.586Z,3.30
2018-06-01T17:53:10.006Z,3.03
2018-06-01T17:55:37.448Z,2.95
2018-06-01T17:58:04.904Z,3.00
2018-06-01T18:00:32.336Z,3.03
2018-06-01T18:03:00.568Z,3.00
2018-06-01T18:05:27.991Z,2.90
2018-06-01T18:07:55.456Z,2.53
2018-06-01T18:10:22.927Z,3.47
2018-06-01T18:12:50.363Z,2.90
2018-06-01T18:15:18.684Z,2.70
2018-06-01T18:17:46.147Z,2.90
2018-06-01T18:20:13.584Z,2.47
2018-06-01T18:22:41.058Z,3.47
2018-06-01T18:25:08.487Z,2.80
2018-06-01T18:27:35.943Z,3.20
2018-06-01T18:30:03.419Z,3.10
2018-06-01T18:32:30.854Z,2.80
2018-06-01T18:34:58.438Z,2.70
2018-06-01T18:37:25.871Z,2.40
2018-06-01T18:39:53.313Z,2.57
2018-06-01T18:42:21.610Z,2.10
2018-06-01T18:44:49.036Z,2.67
2018-06-01T18:47:17.264Z,2.00
2018-06-01T18:49:44.701Z,2.50
2018-06-01T18:52:12.163Z,2.23
2018-06-01T18:54:39.599Z,2.27
2018-06-01T18:57:07.036Z,2.47
2018-06-01T18:59:35.258Z,1.97
2018-06-01T19:02:02.714Z,2.10
2018-06-01T19:04:30.142Z,2.40
2018-06-01T19:06:57.652Z,2.07
2018-06-01T19:09:26.607Z,1.90
2018-06-01T19:11:54.110Z,2.20
2018-06-01T19:14:21.565Z,2.43
2018-06-01T19:16:49.005Z,1.90
2018-06-01T19:19:16.645Z,1.83
2018-06-01T19:21:44.858Z,1.90
2018-06-01T19:24:12.339Z,1.73
2018-06-01T19:26:40.562Z,1.93
2018-06-01T19:29:08.018Z,1.83
2018-06-01T19:31:35.459Z,2.13
2018-06-01T19:34:04.710Z,2.08
2018-06-01T19:36:32.152Z,2.00
2018-06-01T19:38:59.607Z,1.90
2018-06-01T19:41:27.072Z,2.23
2018-06-01T19:43:54.539Z,1.67
2018-06-01T19:46:22.148Z,2.62
2018-06-01T19:48:49.687Z,2.23
2018-06-01T19:51:18.147Z,1.90
2018-06-01T19:53:45.667Z,1.97
2018-06-01T19:56:13.114Z,2.30
2018-06-01T19:58:40.602Z,2.30
2018-06-01T20:01:08.110Z,1.70
2018-06-01T20:03:35.535Z,1.97
2018-06-01T20:06:03.004Z,1.97
2018-06-01T20:08:30.444Z,2.10
2018-06-01T20:10:57.904Z,2.10
2018-06-01T20:13:25.467Z,2.07
2018-06-01T20:15:53.111Z,1.97
2018-06-01T20:18:21.396Z,2.27
2018-06-01T20:20:50.357Z,2.40
2018-06-01T20:23:17.813Z,2.17
2018-06-01T20:25:49.954Z,2.10
2018-06-01T20:28:17.391Z,1.90
2018-06-01T20:30:45.640Z,1.90
2018-06-01T20:33:13.117Z,2.13
2018-06-01T20:35:40.588Z,2.00
2018-06-01T20:38:08.898Z,2.20
2018-06-01T20:40:36.374Z,2.60
2018-06-01T20:43:03.830Z,2.47
2018-06-01T20:45:31.280Z,2.60
2018-06-01T20:47:58.761Z,2.33
2018-06-01T20:50:26.221Z,2.47
2018-06-01T20:52:53.679Z,2.30
2018-06-01T20:55:21.924Z,2.30
2018-06-01T20:57:49.390Z,2.27
2018-06-01T21:00:16.933Z,2.40
2018-06-01T21:02:45.231Z,2.17
2018-06-01T21:05:12.678Z,2.30
2018-06-01T21:07:40.141Z,2.50
2018-06-01T21:10:07.612Z,2.35
2018-06-01T21:12:35.057Z,3.47
2018-06-01T21:15:02.518Z,2.50
2018-06-01T21:17:29.972Z,2.57
2018-06-01T21:19:57.955Z,1.87
2018-06-01T21:22:25.412Z,2.00
2018-06-01T21:24:52.853Z,2.37
2018-06-01T21:27:20.324Z,2.30
2018-06-01T21:29:47.757Z,2.30
2018-06-01T21:32:15.209Z,2.47
2018-06-01T21:34:42.680Z,2.23
2018-06-01T21:37:10.148Z,2.33
2018-06-01T21:39:37.612Z,2.40
2018-06-01T21:42:05.056Z,2.30
2018-06-01T21:44:32.535Z,2.20
2018-06-01T21:47:00.002Z,2.37
2018-06-01T21:49:27.431Z,2.10
2018-06-01T21:51:54.905Z,3.00
2018-06-01T21:54:22.355Z,2.28
2018-06-01T21:56:49.791Z,2.30
2018-06-01T21:59:17.261Z,2.20
2018-06-01T22:01:44.701Z,2.50
2018-06-01T22:04:12.168Z,2.40
2018-06-01T22:06:39.741Z,2.80
2018-06-01T22:09:07.195Z,2.50
2018-06-01T22:11:34.635Z,2.93
2018-06-01T22:14:02.100Z,2.87
2018-06-01T22:16:29.552Z,2.22
2018-06-01T22:18:57.010Z,3.10
2018-06-01T22:21:24.460Z,2.80
2018-06-01T22:23:51.902Z,2.33
2018-06-01T22:26:19.365Z,2.50
2018-06-01T22:28:46.812Z,3.03
2018-06-01T22:31:14.256Z,2.70
2018-06-01T22:33:42.473Z,2.70
2018-06-01T22:36:09.920Z,2.63
2018-06-01T22:38:37.363Z,2.47
2018-06-01T22:41:04.843Z,2.53
2018-06-01T22:43:32.264Z,2.70
2018-06-01T22:46:00.498Z,2.97
2018-06-01T22:48:28.773Z,2.40
2018-06-01T22:50:56.224Z,2.50
2018-06-01T22:53:23.674Z,2.50
2018-06-01T22:55:51.121Z,3.07
2018-06-01T22:58:18.555Z,2.47
2018-06-01T23:00:46.784Z,2.60
2018-06-01T23:03:14.232Z,2.93
2018-06-01T23:05:41.715Z,3.23
2018-06-01T23:08:09.148Z,2.60
2018-06-01T23:10:36.616Z,2.17
2018-06-01T23:13:05.608Z,2.35
2018-06-01T23:15:33.045Z,2.80
2018-06-01T23:18:00.495Z,2.70
2018-06-01T23:20:27.936Z,2.50
2018-06-01T23:22:56.734Z,2.50
2018-06-01T23:25:24.173Z,2.57
2018-06-01T23:27:51.631Z,2.73
2018-06-01T23:30:19.076Z,2.50
2018-06-01T23:32:46.571Z,2.40
2018-06-01T23:35:14.051Z,2.90
2018-06-01T23:37:41.473Z,2.40
2018-06-01T23:40:08.928Z,2.47
2018-06-01T23:42:36.387Z,2.47
2018-06-01T23:45:03.840Z,2.70
2018-06-01T23:47:31.329Z,2.77
2018-06-01T23:49:58.764Z,2.20
2018-06-01T23:52:26.216Z,2.60
2018-06-01T23:54:53.671Z,2.80
2018-06-01T23:57:21.141Z,2.50
2018-06-01T23:59:48.593Z,2.77
